Saint Petersburg, Russia

1:07 PM MSK on April 24, 2017 (GMT +0300)
Sosnovyj Bor | | Change Station

Elev 10 ft 59.97 °N, 30.25 °E | Updated 12 seconds ago

Light Rain Showers
Light Showers Rain
38.5 °F
Feels Like 38 °F
N
0.0
Wind Variable Wind from NNW
Gusts 0.0 mph

Today
High -- | Low -- °F
--% Chance of Precip.
Yesterday
High -- | Low -- °F
Precip. -- in
Pressure 29.74 in
Visibility 6.2 miles
Clouds Scattered Clouds 900 ft
Mostly Cloudy 1900 ft
Overcast 3300 ft
Windchill 38 °F
Dew Point 35 °F
Humidity 87%
Rainfall 0.00 in
Snow Depth Not available.
5:16 AM 8:39 PM
Waning Crescent, 6% visible
METAR ULLI 240930Z 27005MPS 9999 -SHRA SCT009 BKN019CB OVC033 03/01 Q1007 R88/290050 NOSIG
Pressure 29.74 in
Visibility 6.2 miles
Clouds Scattered Clouds 900 ft
Mostly Cloudy 1900 ft
Overcast 3300 ft
Windchill 38 °F
Dew Point 35 °F
Humidity 87%
Rainfall 0.00 in
Snow Depth Not available.
5:16 AM 8:39 PM
Waning Crescent, 6% visible
METAR ULLI 240930Z 27005MPS 9999 -SHRA SCT009 BKN019CB OVC033 03/01 Q1007 R88/290050 NOSIG

Get Severe Weather Alerts

Thanks for signing up!

Be on the lookout for a verification email in your inbox.

You'll start receiving the daily forecast at 8 AM.

×

10-Day Weather Forecast

×

Almanac

Astronomy

Apr. 24, 2017 Rise Set
Actual Time
Civil Twilight
Nautical Twilight
Astronomical Twilight
Moon
Length of Visible Light
Length of Day
Tomorrow will be .
, % of the Moon is Illuminated

Today's Extremes

Country Highs Country Lows

Community

WunderPhotos

WunderBlog® & News

Nearby

Air Quality

  Air Quality AQ Index Pollutant
Not available.

Snow Depth

Station Depth Elevation

Earthquake Activity

City Distance Mag. Time & Date
Minimum magnitude displayed is 2.5.

Coastal Water Temperatures

Place Temperature

Stations

Nearby Weather Stations

Station Location Temp. Windchill Dew Point Humidity Wind Precip. Elev Updated Type